Terminal Aerodrome Forecast
Issued by NWS Twin Cities, MN

Home | Current Version | Previous Version | Graphics & Text | Print | Product List | Glossary On
Versions: 1 2 3 4 5 6 7 8 9 10 11 12 13 14 15 16 17 18 19 20 21 22 23 24 25 26 27 28 29 30 31 32
000
FTUS43 KMPX 240500 RRA
TAFMSP
TAF
KMSP 240542Z 2406/2512 31015G24KT 5SM -SN BR OVC015
      TEMPO 2408/2412 P6SM -SN
     FM241200 31019G30KT 6SM -SHSN OVC015
      TEMPO 2412/2416 4SM -FZDZ OVC010
     FM250400 31014G22KT P6SM SCT015=

USA.gov is the U.S. government's official web portal to all federal, state and local government web resources and services.